createdAt,value
2017-08-15T00:01:21.460Z,88.60
2017-08-15T00:03:50.570Z,88.50
2017-08-15T00:06:25.344Z,89.00
2017-08-15T00:08:55.160Z,89.10
2017-08-15T00:11:26.730Z,89.20
2017-08-15T00:13:59.645Z,89.50
2017-08-15T00:16:29.984Z,89.70
2017-08-15T00:19:08.234Z,89.60
2017-08-15T00:24:12.638Z,89.60
2017-08-15T00:26:42.175Z,89.80
2017-08-15T00:35:00.109Z,90.00
2017-08-15T00:37:46.241Z,90.00
2017-08-15T00:43:46.741Z,90.20
2017-08-15T00:52:17.575Z,90.40
2017-08-15T00:57:49.286Z,90.60
2017-08-15T01:08:37.969Z,90.70
2017-08-15T01:11:05.410Z,90.80
2017-08-15T01:13:32.865Z,90.70
2017-08-15T01:16:00.301Z,90.60
2017-08-15T01:18:28.506Z,90.60
2017-08-15T01:20:55.953Z,90.60
2017-08-15T01:23:23.386Z,90.60
2017-08-15T01:25:50.826Z,90.60
2017-08-15T01:28:18.259Z,90.60
2017-08-15T01:30:45.695Z,90.60
2017-08-15T01:33:13.125Z,90.70
2017-08-15T01:35:41.339Z,91.00
2017-08-15T01:38:08.778Z,90.90
2017-08-15T01:40:36.216Z,91.10
2017-08-15T01:43:04.422Z,91.10
2017-08-15T01:45:31.858Z,90.90
2017-08-15T01:48:00.063Z,91.00
2017-08-15T01:50:27.502Z,90.90
2017-08-15T01:52:54.939Z,90.90
2017-08-15T01:55:23.137Z,91.00
2017-08-15T01:57:50.803Z,91.00
2017-08-15T02:00:18.234Z,91.20
2017-08-15T02:02:46.435Z,91.30
2017-08-15T02:05:13.870Z,91.30
2017-08-15T02:07:41.306Z,91.40
2017-08-15T02:10:08.741Z,91.50
2017-08-15T02:12:36.183Z,91.50
2017-08-15T02:15:03.616Z,91.50
2017-08-15T02:17:31.060Z,91.50
2017-08-15T02:19:59.501Z,91.60
2017-08-15T02:22:26.938Z,91.60
2017-08-15T02:24:54.370Z,91.60
2017-08-15T02:27:21.810Z,91.60
2017-08-15T02:29:50.013Z,92.00
2017-08-15T02:32:17.469Z,91.70
2017-08-15T02:34:44.901Z,91.70
2017-08-15T02:37:13.110Z,91.90
2017-08-15T02:39:40.546Z,91.90
2017-08-15T02:42:08.754Z,92.10
2017-08-15T02:44:36.186Z,92.10
2017-08-15T02:47:03.624Z,92.10
2017-08-15T02:49:31.839Z,92.10
2017-08-15T02:51:59.269Z,92.10
2017-08-15T02:54:27.477Z,92.10
2017-08-15T02:56:54.901Z,92.10
2017-08-15T02:59:23.107Z,92.10
2017-08-15T03:01:50.543Z,92.10
2017-08-15T03:04:18.747Z,92.10
2017-08-15T03:06:46.177Z,92.10
2017-08-15T03:09:13.607Z,92.10
2017-08-15T03:11:41.051Z,92.20
2017-08-15T03:14:08.479Z,92.20
2017-08-15T03:16:35.925Z,92.30
2017-08-15T03:19:03.351Z,92.30
2017-08-15T03:21:31.559Z,92.10
2017-08-15T03:23:58.991Z,92.00
2017-08-15T03:26:26.431Z,92.00
2017-08-15T03:28:54.630Z,92.00
2017-08-15T03:31:22.062Z,91.70
2017-08-15T03:33:49.499Z,91.70
2017-08-15T03:36:16.934Z,91.60
2017-08-15T03:38:44.374Z,91.60
2017-08-15T03:41:11.806Z,91.50
2017-08-15T03:43:39.245Z,91.60
2017-08-15T03:46:06.670Z,91.60
2017-08-15T03:48:34.110Z,91.60
2017-08-15T03:51:01.542Z,91.70
2017-08-15T03:53:29.747Z,91.90
2017-08-15T03:55:57.186Z,91.80
2017-08-15T03:58:24.622Z,91.90
2017-08-15T04:00:52.834Z,92.00
2017-08-15T04:03:20.266Z,92.00
2017-08-15T04:05:48.466Z,92.20
2017-08-15T04:08:15.893Z,92.20
2017-08-15T04:10:44.122Z,92.30
2017-08-15T04:13:11.534Z,92.20
2017-08-15T04:15:39.733Z,92.40
2017-08-15T04:18:07.169Z,92.40
2017-08-15T04:20:34.606Z,92.50
2017-08-15T04:23:02.043Z,92.60
2017-08-15T04:25:29.474Z,92.70
2017-08-15T04:27:56.918Z,92.70
2017-08-15T04:30:24.353Z,92.70
2017-08-15T04:32:52.558Z,92.70
2017-08-15T04:35:19.990Z,92.70
2017-08-15T04:37:47.427Z,92.70
2017-08-15T04:40:15.630Z,92.60
2017-08-15T04:42:43.061Z,92.60
2017-08-15T04:45:11.266Z,92.60
2017-08-15T04:47:38.694Z,92.50
2017-08-15T04:50:06.898Z,92.40
2017-08-15T04:52:34.329Z,92.40
2017-08-15T04:55:02.554Z,91.90
2017-08-15T04:57:30.002Z,91.90
2017-08-15T04:59:57.430Z,91.70
2017-08-15T05:02:25.633Z,91.40
2017-08-15T05:04:53.073Z,91.40
2017-08-15T05:07:20.514Z,91.40
2017-08-15T05:09:48.710Z,91.50
2017-08-15T05:12:16.162Z,91.20
2017-08-15T05:14:43.602Z,91.20
2017-08-15T05:17:12.042Z,90.90
2017-08-15T05:19:39.478Z,90.90
2017-08-15T05:22:06.910Z,90.70
2017-08-15T05:24:35.118Z,90.50
2017-08-15T05:27:02.553Z,90.50
2017-08-15T05:29:29.999Z,90.30
2017-08-15T05:31:58.197Z,90.00
2017-08-15T05:34:25.637Z,89.90
2017-08-15T05:36:53.074Z,89.50
2017-08-15T05:39:21.282Z,88.30
2017-08-15T05:41:48.721Z,88.30
2017-08-15T05:44:16.926Z,87.50
2017-08-15T05:46:44.374Z,87.40
2017-08-15T05:49:11.837Z,87.30
2017-08-15T05:51:40.017Z,85.60
2017-08-15T05:54:07.450Z,85.50
2017-08-15T05:56:34.904Z,85.10
2017-08-15T05:59:02.485Z,84.60
2017-08-15T06:01:30.056Z,84.40
2017-08-15T06:03:57.566Z,82.70
2017-08-15T06:06:26.271Z,80.70
2017-08-15T06:08:53.886Z,79.40
2017-08-15T06:11:22.405Z,78.60
2017-08-15T06:13:49.858Z,77.80
2017-08-15T06:16:18.111Z,76.60
2017-08-15T06:18:45.546Z,73.80
2017-08-15T06:21:12.977Z,67.00
2017-08-15T06:23:40.414Z,61.30
2017-08-15T06:26:07.846Z,57.50
2017-08-15T06:28:35.296Z,54.30
2017-08-15T06:31:02.723Z,51.20
2017-08-15T06:33:30.150Z,48.80
2017-08-15T06:35:58.350Z,47.70
2017-08-15T06:38:25.783Z,47.70
2017-08-15T06:40:53.983Z,47.80
2017-08-15T06:43:21.411Z,47.10
2017-08-15T06:45:48.850Z,46.30
2017-08-15T06:48:16.286Z,44.00
2017-08-15T06:50:43.722Z,43.70
2017-08-15T06:53:11.154Z,44.20
2017-08-15T06:55:39.354Z,44.20
2017-08-15T06:58:06.786Z,44.20
2017-08-15T07:00:34.982Z,42.90
2017-08-15T07:03:02.419Z,42.90
2017-08-15T07:05:30.623Z,43.10
2017-08-15T07:07:58.059Z,43.10
2017-08-15T07:10:26.253Z,44.70
2017-08-15T07:12:53.678Z,44.60
2017-08-15T07:15:21.886Z,46.60
2017-08-15T07:17:49.309Z,46.00
2017-08-15T07:20:17.522Z,46.10
2017-08-15T07:22:44.950Z,45.70
2017-08-15T07:25:13.151Z,47.30
2017-08-15T07:27:40.578Z,47.20
2017-08-15T07:30:08.787Z,46.30
2017-08-15T07:32:36.217Z,46.30
2017-08-15T07:35:03.647Z,46.50
2017-08-15T07:37:31.073Z,46.50
2017-08-15T07:39:58.514Z,45.60
2017-08-15T07:42:25.942Z,46.30
2017-08-15T07:44:54.142Z,46.90
2017-08-15T07:47:21.569Z,46.90
2017-08-15T07:49:49.022Z,47.00
2017-08-15T07:52:16.450Z,46.90
2017-08-15T07:54:43.922Z,45.40
2017-08-15T07:57:11.349Z,45.20
2017-08-15T07:59:38.771Z,44.40
2017-08-15T08:02:06.202Z,44.90
2017-08-15T08:04:33.629Z,45.90
2017-08-15T08:07:01.067Z,45.70
2017-08-15T08:09:28.498Z,46.20
2017-08-15T08:11:55.935Z,46.70
2017-08-15T08:14:23.362Z,46.10
2017-08-15T08:16:51.066Z,45.50
2017-08-15T08:19:18.482Z,44.90
2017-08-15T08:21:45.919Z,45.10
2017-08-15T08:24:13.346Z,45.70
2017-08-15T08:26:40.786Z,45.20
2017-08-15T08:29:08.227Z,44.30
2017-08-15T08:31:35.667Z,46.30
2017-08-15T08:34:03.102Z,45.60
2017-08-15T08:36:30.539Z,46.30
2017-08-15T08:38:57.971Z,46.50
2017-08-15T08:41:25.415Z,47.30
2017-08-15T08:43:52.838Z,47.00
2017-08-15T08:46:20.286Z,47.40
2017-08-15T08:48:47.726Z,46.20
2017-08-15T08:51:15.922Z,46.60
2017-08-15T08:53:43.353Z,46.70
2017-08-15T08:56:11.551Z,48.30
2017-08-15T08:58:39.024Z,48.30
2017-08-15T09:01:06.446Z,47.60
2017-08-15T09:03:34.651Z,48.20
2017-08-15T09:06:02.087Z,48.10
2017-08-15T09:08:30.298Z,49.70
2017-08-15T09:10:57.730Z,49.70
2017-08-15T09:13:25.171Z,48.50
2017-08-15T09:15:53.374Z,49.80
2017-08-15T09:18:20.808Z,49.80
2017-08-15T09:20:48.235Z,48.40
2017-08-15T09:23:15.669Z,47.00
2017-08-15T09:25:43.103Z,48.10
2017-08-15T09:28:10.538Z,48.30
2017-08-15T09:30:38.734Z,51.00
2017-08-15T09:33:06.182Z,50.90
2017-08-15T09:35:33.607Z,49.20
2017-08-15T09:38:01.058Z,49.40
2017-08-15T09:40:28.492Z,49.60
2017-08-15T09:42:55.940Z,50.00
2017-08-15T09:45:23.354Z,48.60
2017-08-15T09:47:51.554Z,48.10
2017-08-15T09:50:18.995Z,48.10
2017-08-15T09:52:47.210Z,45.20
2017-08-15T09:55:14.673Z,45.20
2017-08-15T09:57:42.102Z,43.40
2017-08-15T10:00:09.546Z,43.30
2017-08-15T10:02:36.984Z,42.80
2017-08-15T10:05:04.429Z,42.40
2017-08-15T10:07:31.968Z,42.40
2017-08-15T10:09:59.407Z,41.00
2017-08-15T10:12:26.874Z,41.00
2017-08-15T10:14:54.330Z,41.30
2017-08-15T10:17:21.790Z,41.00
2017-08-15T10:19:49.229Z,40.90
2017-08-15T10:22:16.668Z,41.30
2017-08-15T10:24:44.109Z,40.20
2017-08-15T10:27:12.769Z,41.50
2017-08-15T10:29:40.223Z,41.00
2017-08-15T10:32:07.654Z,41.60
2017-08-15T10:34:35.094Z,41.10
2017-08-15T10:37:02.695Z,40.40
2017-08-15T10:39:30.200Z,39.40
2017-08-15T10:41:58.427Z,40.70
2017-08-15T10:44:25.870Z,40.70
2017-08-15T10:46:53.413Z,40.70
2017-08-15T10:49:20.871Z,40.60
2017-08-15T10:51:48.310Z,40.80
2017-08-15T10:54:15.739Z,40.70
2017-08-15T10:56:43.170Z,40.80
2017-08-15T10:59:10.630Z,40.20
2017-08-15T11:01:38.070Z,40.40
2017-08-15T11:04:05.503Z,40.30
2017-08-15T11:06:33.726Z,40.00
2017-08-15T11:09:01.157Z,40.00
2017-08-15T11:11:28.582Z,39.60
2017-08-15T11:13:56.786Z,39.70
2017-08-15T11:16:24.217Z,39.70
2017-08-15T11:18:52.428Z,39.00
2017-08-15T11:21:19.847Z,39.00
2017-08-15T11:23:48.046Z,37.30
2017-08-15T11:26:15.474Z,37.30
2017-08-15T11:28:43.674Z,37.30
2017-08-15T11:31:11.124Z,37.30
2017-08-15T11:33:39.308Z,37.70
2017-08-15T11:36:06.738Z,37.00
2017-08-15T11:38:34.166Z,37.70
2017-08-15T11:41:01.599Z,36.80
2017-08-15T11:43:29.027Z,36.50
2017-08-15T11:45:57.226Z,37.40
2017-08-15T11:48:24.663Z,37.30
2017-08-15T11:50:52.865Z,37.70
2017-08-15T11:53:20.289Z,37.70
2017-08-15T11:55:48.489Z,37.00
2017-08-15T11:58:15.916Z,37.00
2017-08-15T12:00:44.118Z,36.00
2017-08-15T12:03:11.542Z,36.00
2017-08-15T12:05:39.742Z,38.10
2017-08-15T12:08:07.180Z,38.00
2017-08-15T12:10:35.402Z,37.30
2017-08-15T12:13:02.834Z,37.30
2017-08-15T12:15:30.270Z,37.70
2017-08-15T12:17:58.473Z,35.00
2017-08-15T12:20:26.659Z,35.60
2017-08-15T12:22:54.102Z,35.50
2017-08-15T12:25:21.562Z,34.50
2017-08-15T12:27:48.988Z,34.30
2017-08-15T12:30:16.414Z,35.30
2017-08-15T12:32:43.855Z,34.00
2017-08-15T12:35:11.287Z,33.60
2017-08-15T12:37:38.751Z,33.40
2017-08-15T12:40:06.175Z,33.90
2017-08-15T12:42:33.623Z,34.60
2017-08-15T12:45:01.052Z,34.70
2017-08-15T12:47:28.486Z,34.50
2017-08-15T12:49:55.916Z,34.10
2017-08-15T12:52:24.131Z,35.60
2017-08-15T12:54:51.561Z,35.60
2017-08-15T12:57:19.088Z,35.10
2017-08-15T12:59:46.550Z,35.50
2017-08-15T13:02:13.978Z,34.80
2017-08-15T13:04:42.187Z,34.80
2017-08-15T13:07:09.613Z,34.80
2017-08-15T13:09:37.819Z,35.70
2017-08-15T13:12:05.254Z,35.70
2017-08-15T13:14:32.695Z,36.00
2017-08-15T13:17:00.902Z,35.70
2017-08-15T13:19:28.333Z,35.60
2017-08-15T13:21:55.770Z,35.50
2017-08-15T13:24:23.202Z,35.10
2017-08-15T13:26:50.639Z,35.30
2017-08-15T13:29:18.081Z,36.10
2017-08-15T13:31:45.558Z,36.00
2017-08-15T13:34:13.018Z,35.70
2017-08-15T13:36:40.454Z,35.30
2017-08-15T13:39:07.886Z,35.10
2017-08-15T13:41:36.095Z,35.00
2017-08-15T13:44:03.531Z,34.40
2017-08-15T13:46:31.728Z,35.30
2017-08-15T13:48:59.154Z,35.30
2017-08-15T13:51:27.362Z,34.70
2017-08-15T13:53:54.802Z,34.60
2017-08-15T13:56:22.999Z,34.70
2017-08-15T13:58:50.435Z,34.70
2017-08-15T14:01:18.676Z,34.20
2017-08-15T14:03:46.111Z,34.10
2017-08-15T14:06:13.546Z,34.10
2017-08-15T14:08:40.990Z,34.50
2017-08-15T14:11:09.194Z,35.00
2017-08-15T14:13:36.626Z,35.00
2017-08-15T14:16:04.067Z,35.40
2017-08-15T14:18:32.275Z,35.60
2017-08-15T14:20:59.698Z,35.00
2017-08-15T14:23:27.903Z,36.30
2017-08-15T14:25:55.331Z,36.20
2017-08-15T14:28:23.547Z,36.50
2017-08-15T14:30:50.974Z,36.50
2017-08-15T14:33:18.419Z,36.70
2017-08-15T14:35:46.622Z,36.20
2017-08-15T14:38:14.066Z,36.10
2017-08-15T14:40:42.254Z,36.20
2017-08-15T14:43:09.697Z,36.20
2017-08-15T14:45:37.891Z,36.40
2017-08-15T14:48:05.326Z,36.40
2017-08-15T14:50:32.763Z,36.30
2017-08-15T14:53:00.200Z,36.20
2017-08-15T14:55:27.638Z,37.40
2017-08-15T14:57:55.070Z,35.60
2017-08-15T15:00:22.502Z,35.80
2017-08-15T15:02:49.941Z,36.00
2017-08-15T15:05:17.382Z,34.90
2017-08-15T15:07:44.817Z,34.40
2017-08-15T15:10:12.252Z,35.20
2017-08-15T15:12:39.703Z,34.30
2017-08-15T15:15:07.908Z,34.30
2017-08-15T15:17:35.334Z,34.20
2017-08-15T15:20:03.544Z,35.10
2017-08-15T15:22:30.974Z,35.10
2017-08-15T15:24:58.422Z,34.50
2017-08-15T15:27:26.625Z,35.30
2017-08-15T15:29:54.067Z,35.30
2017-08-15T15:32:21.498Z,34.80
2017-08-15T15:34:48.930Z,34.80
2017-08-15T15:37:16.362Z,34.20
2017-08-15T15:39:43.851Z,33.50
2017-08-15T15:42:11.282Z,34.00
2017-08-15T15:44:38.719Z,33.50
2017-08-15T15:47:06.154Z,34.50
2017-08-15T15:49:34.355Z,34.70
2017-08-15T15:52:01.789Z,34.70
2017-08-15T15:54:29.978Z,35.20
2017-08-15T15:56:57.418Z,35.20
2017-08-15T15:59:24.858Z,36.30
2017-08-15T16:01:52.294Z,36.10
2017-08-15T16:04:19.730Z,36.70
2017-08-15T16:06:47.166Z,37.30
2017-08-15T16:09:14.595Z,36.10
2017-08-15T16:11:42.058Z,36.70
2017-08-15T16:14:09.483Z,36.80
2017-08-15T16:16:36.922Z,36.90
2017-08-15T16:19:04.367Z,36.80
2017-08-15T16:21:31.811Z,37.30
2017-08-15T16:23:59.247Z,36.80
2017-08-15T16:26:26.686Z,37.60
2017-08-15T16:28:54.126Z,38.70
2017-08-15T16:31:21.562Z,38.70
2017-08-15T16:33:48.999Z,38.70
2017-08-15T16:36:17.204Z,36.70
2017-08-15T16:38:44.641Z,36.70
2017-08-15T16:41:12.078Z,36.70
2017-08-15T16:43:40.287Z,36.90
2017-08-15T16:46:07.723Z,36.80
2017-08-15T16:48:35.943Z,36.50
2017-08-15T16:51:03.374Z,36.50
2017-08-15T16:53:30.818Z,36.50
2017-08-15T16:55:58.255Z,37.10
2017-08-15T16:58:25.688Z,37.20
2017-08-15T17:00:53.118Z,36.10
2017-08-15T17:03:20.558Z,36.90
2017-08-15T17:05:47.991Z,37.70
2017-08-15T17:08:16.195Z,38.70
2017-08-15T17:10:43.625Z,38.70
2017-08-15T17:13:11.066Z,38.60
2017-08-15T17:15:38.494Z,38.50
2017-08-15T17:18:05.933Z,39.60
2017-08-15T17:20:33.362Z,39.70
2017-08-15T17:23:00.791Z,39.10
2017-08-15T17:25:28.254Z,40.10
2017-08-15T17:27:55.687Z,40.30
2017-08-15T17:30:23.154Z,40.70
2017-08-15T17:32:50.590Z,41.90
2017-08-15T17:35:18.031Z,42.20
2017-08-15T17:37:45.466Z,42.40
2017-08-15T17:40:12.902Z,42.40
2017-08-15T17:42:40.362Z,42.20
2017-08-15T17:45:08.566Z,43.00
2017-08-15T17:47:36.018Z,43.00
2017-08-15T17:50:04.210Z,42.60
2017-08-15T17:52:31.648Z,42.60
2017-08-15T17:54:59.846Z,43.80
2017-08-15T17:57:27.279Z,43.70
2017-08-15T17:59:54.713Z,44.00
2017-08-15T18:02:22.152Z,44.20
2017-08-15T18:04:49.586Z,45.10
2017-08-15T18:07:17.034Z,45.60
2017-08-15T18:09:44.472Z,45.60
2017-08-15T18:12:12.662Z,46.20
2017-08-15T18:14:40.102Z,46.20
2017-08-15T18:17:07.576Z,46.90
2017-08-15T18:19:35.011Z,48.00
2017-08-15T18:22:02.451Z,48.20
2017-08-15T18:24:30.787Z,49.70
2017-08-15T18:26:58.250Z,49.70
2017-08-15T18:29:25.974Z,49.20
2017-08-15T18:31:53.419Z,49.00
2017-08-15T18:34:20.862Z,48.40
2017-08-15T18:36:48.367Z,48.20
2017-08-15T18:39:15.819Z,48.00
2017-08-15T18:41:43.278Z,48.20
2017-08-15T18:44:10.713Z,47.90
2017-08-15T18:46:38.946Z,47.50
2017-08-15T18:49:06.385Z,47.50
2017-08-15T18:51:33.853Z,47.80
2017-08-15T18:54:01.298Z,48.10
2017-08-15T18:56:28.752Z,48.20
2017-08-15T18:58:56.206Z,48.30
2017-08-15T19:01:23.663Z,48.40
2017-08-15T19:03:51.122Z,48.50
2017-08-15T19:06:18.595Z,48.70
2017-08-15T19:08:46.054Z,49.10
2017-08-15T19:11:13.519Z,49.30
2017-08-15T19:13:40.984Z,48.90
2017-08-15T19:16:08.435Z,49.00
2017-08-15T19:18:35.879Z,49.10
2017-08-15T19:21:03.331Z,49.30
2017-08-15T19:23:30.813Z,49.60
2017-08-15T19:25:58.302Z,49.40
2017-08-15T19:28:25.810Z,49.10
2017-08-15T19:30:53.247Z,49.20
2017-08-15T19:33:21.478Z,49.60
2017-08-15T19:35:48.918Z,49.60
2017-08-15T19:38:16.367Z,49.80
2017-08-15T19:40:43.866Z,50.00
2017-08-15T19:43:11.334Z,50.30
2017-08-15T19:45:38.774Z,50.50
2017-08-15T19:48:06.266Z,50.80
2017-08-15T19:50:34.542Z,51.70
2017-08-15T19:53:02.006Z,51.70
2017-08-15T19:55:30.218Z,51.90
2017-08-15T19:57:57.674Z,51.80
2017-08-15T20:00:25.126Z,51.70
2017-08-15T20:02:52.621Z,51.40
2017-08-15T20:05:20.358Z,51.20
2017-08-15T20:07:47.907Z,51.00
2017-08-15T20:10:15.419Z,50.60
2017-08-15T20:12:43.055Z,50.50
2017-08-15T20:15:10.562Z,50.40
2017-08-15T20:17:38.889Z,50.70
2017-08-15T20:20:06.436Z,50.70
2017-08-15T20:22:34.007Z,50.70
2017-08-15T20:25:01.499Z,50.30
2017-08-15T20:27:28.954Z,50.50
2017-08-15T20:29:56.420Z,50.00
2017-08-15T20:35:02.147Z,50.90
2017-08-15T20:37:29.752Z,50.90
2017-08-15T20:39:57.266Z,51.20
2017-08-15T20:42:24.771Z,51.90
2017-08-15T20:44:52.283Z,52.60
2017-08-15T20:47:19.879Z,53.10
2017-08-15T20:49:47.468Z,53.30
2017-08-15T20:52:15.715Z,53.80
2017-08-15T20:54:43.362Z,53.70
2017-08-15T20:57:21.743Z,54.00
2017-08-15T20:59:49.191Z,53.80
2017-08-15T21:02:16.725Z,54.20
2017-08-15T21:04:44.162Z,54.60
2017-08-15T21:07:11.606Z,54.60
2017-08-15T21:09:39.038Z,55.20
2017-08-15T21:12:06.554Z,55.60
2017-08-15T21:14:34.031Z,55.60
2017-08-15T21:17:02.333Z,56.10
2017-08-15T21:19:29.758Z,56.00
2017-08-15T21:21:57.190Z,56.90
2017-08-15T21:24:24.644Z,56.70
2017-08-15T21:26:52.078Z,56.90
2017-08-15T21:29:19.519Z,57.10
2017-08-15T21:31:46.963Z,57.30
2017-08-15T21:34:14.394Z,57.10
2017-08-15T21:36:41.863Z,57.40
2017-08-15T21:39:09.302Z,57.50
2017-08-15T21:41:36.734Z,57.70
2017-08-15T21:44:04.179Z,57.80
2017-08-15T21:46:31.615Z,58.20
2017-08-15T21:48:59.069Z,58.20
2017-08-15T21:51:26.518Z,58.40
2017-08-15T21:53:53.959Z,58.70
2017-08-15T21:56:22.182Z,59.40
2017-08-15T21:58:49.630Z,59.20
2017-08-15T22:01:22.938Z,59.30
2017-08-15T22:03:50.451Z,59.80
2017-08-15T22:06:17.897Z,60.20
2017-08-15T22:08:45.358Z,61.20
2017-08-15T22:11:12.938Z,61.60
2017-08-15T22:13:41.262Z,63.00
2017-08-15T22:16:08.694Z,62.50
2017-08-15T22:18:36.137Z,62.90
2017-08-15T22:21:03.587Z,63.50
2017-08-15T22:23:31.790Z,64.30
2017-08-15T22:25:59.250Z,64.30
2017-08-15T22:28:26.689Z,64.50
2017-08-15T22:30:54.118Z,64.80
2017-08-15T22:33:21.563Z,65.10
2017-08-15T22:35:49.009Z,65.10
2017-08-15T22:38:16.474Z,65.50
2017-08-15T22:40:43.914Z,66.20
2017-08-15T22:43:11.359Z,66.00
2017-08-15T22:45:38.798Z,66.50
2017-08-15T22:48:06.234Z,66.90
2017-08-15T22:50:33.702Z,68.30
2017-08-15T22:53:01.138Z,69.80
2017-08-15T22:55:28.578Z,71.10
2017-08-15T22:57:56.032Z,72.80
2017-08-15T23:00:23.522Z,74.70
2017-08-15T23:02:50.966Z,76.00
2017-08-15T23:05:18.399Z,76.80
2017-08-15T23:07:45.837Z,77.90
2017-08-15T23:10:13.282Z,78.50
2017-08-15T23:12:40.792Z,78.90
2017-08-15T23:15:08.412Z,79.60
2017-08-15T23:17:36.014Z,80.50
2017-08-15T23:20:03.590Z,81.80
2017-08-15T23:22:31.170Z,82.80
2017-08-15T23:24:59.527Z,85.40
2017-08-15T23:27:27.015Z,85.40
2017-08-15T23:29:55.476Z,87.30
2017-08-15T23:32:23.146Z,87.30
2017-08-15T23:34:52.342Z,90.20
2017-08-15T23:37:20.776Z,90.30
2017-08-15T23:39:48.294Z,90.20
2017-08-15T23:42:15.834Z,90.60
2017-08-15T23:44:55.262Z,91.20
2017-08-15T23:47:23.802Z,90.90
2017-08-15T23:49:51.670Z,91.00
2017-08-15T23:52:19.299Z,91.20
2017-08-15T23:54:47.094Z,91.60
2017-08-15T23:57:14.603Z,92.20
2017-08-15T23:59:42.075Z,92.30
